Time;durP1;ratioP1;P1;durP2;ratioP2;P2;SDS_P1;SDS_P2;PMS_P1;PMS_P2;Temp;Humidity;BMP_temperature;BMP_pressure;BME280_temperature;BME280_humidity;BME280_pressure;Samples;Min_cycle;Max_cycle;Signal;HPM_P1;HPM_P2
2022/01/19 00:01:15;;;;;;;11.63;2.58;;;;;;;;;;5064750;28;20045;-70
2022/01/19 00:03:41;;;;;;;10.45;4.03;;;;;;;;;;5064370;28;20036;-71
2022/01/19 00:06:06;;;;;;;6.10;3.20;;;;;;;;;;5063707;28;20039;-70
2022/01/19 00:08:32;;;;;;;6.28;3.17;;;;;;;;;;5062618;28;20033;-71
2022/01/19 00:10:58;;;;;;;11.48;3.55;;;;;;;;;;5080293;28;20090;-71
2022/01/19 00:13:24;;;;;;;8.77;3.72;;;;;;;;;;5064206;28;20040;-70
2022/01/19 00:15:50;;;;;;;12.27;3.83;;;;;;;;;;5062504;28;20043;-71
2022/01/19 00:18:18;;;;;;;12.65;3.40;;;;;;;;;;5062407;28;20103;-71
2022/01/19 00:20:44;;;;;;;9.45;3.88;;;;;;;;;;5064004;28;20028;-71
2022/01/19 00:23:11;;;;;;;7.07;3.63;;;;;;;;;;5064019;28;20040;-71
2022/01/19 00:25:40;;;;;;;12.25;3.38;;;;;;;;;;5062591;28;20120;-71
2022/01/19 00:28:25;;;;;;;8.20;3.47;;;;;;;;;;5054372;28;20046;-71
2022/01/19 00:30:52;;;;;;;12.10;3.42;;;;;;;;;;5079044;28;20923;-71
2022/01/19 00:33:27;;;;;;;16.15;4.93;;;;;;;;;;5064262;28;20102;-71
2022/01/19 00:36:00;;;;;;;8.05;3.17;;;;;;;;;;5055626;28;20117;-71
2022/01/19 00:38:29;;;;;;;11.18;5.32;;;;;;;;;;5062561;28;20443;-71
2022/01/19 00:40:57;;;;;;;10.10;4.50;;;;;;;;;;5045837;28;20564;-71
2022/01/19 00:43:26;;;;;;;11.07;4.97;;;;;;;;;;5079241;28;20062;-71
2022/01/19 00:46:03;;;;;;;23.80;6.55;;;;;;;;;;5062524;28;20040;-71
2022/01/19 00:48:44;;;;;;;14.88;5.28;;;;;;;;;;5078080;28;20051;-71
2022/01/19 00:51:15;;;;;;;10.50;4.78;;;;;;;;;;5051619;28;20504;-71
2022/01/19 00:53:44;;;;;;;13.77;4.10;;;;;;;;;;5062122;28;20477;-71
2022/01/19 00:56:18;;;;;;;12.60;4.40;;;;;;;;;;5063469;28;20283;-71
2022/01/19 00:58:52;;;;;;;11.80;4.15;;;;;;;;;;5050925;28;20028;-71
2022/01/19 01:01:18;;;;;;;;;;;;;;;;;;5060624;28;20046;-71
2022/01/19 01:04:04;;;;;;;12.45;4.78;;;;;;;;;;5063296;28;20322;-71
2022/01/19 01:06:36;;;;;;;16.25;4.13;;;;;;;;;;5063423;28;20029;-70
2022/01/19 01:09:04;;;;;;;13.30;3.95;;;;;;;;;;5037904;28;20090;-71
2022/01/19 01:11:35;;;;;;;13.48;3.92;;;;;;;;;;5077461;28;20044;-71
2022/01/19 01:17:12;;;;;;;16.67;5.50;;;;;;;;;;5078394;28;20044;-71
2022/01/19 01:20:04;;;;;;;12.95;4.75;;;;;;;;;;5060969;28;20464;-71
2022/01/19 01:22:36;;;;;;;8.43;4.15;;;;;;;;;;5051761;28;20059;-71
2022/01/19 01:25:10;;;;;;;9.13;4.35;;;;;;;;;;5063246;28;20498;-71
2022/01/19 01:27:39;;;;;;;10.18;4.43;;;;;;;;;;5052666;28;20079;-71
2022/01/19 01:30:14;;;;;;;15.48;4.88;;;;;;;;;;5061291;28;20045;-71
2022/01/19 01:32:46;;;;;;;10.57;4.63;;;;;;;;;;5055177;28;20044;-71
2022/01/19 01:35:16;;;;;;;12.55;4.60;;;;;;;;;;5061316;28;20044;-71
2022/01/19 01:37:54;;;;;;;10.85;5.28;;;;;;;;;;5062794;28;20039;-71
2022/01/19 01:40:47;;;;;;;8.65;4.15;;;;;;;;;;5070861;28;20051;-71
2022/01/19 01:43:19;;;;;;;10.93;5.05;;;;;;;;;;5061950;28;20044;-71
2022/01/19 01:46:02;;;;;;;14.57;4.68;;;;;;;;;;5050997;28;20071;-71
2022/01/19 01:48:41;;;;;;;14.00;4.85;;;;;;;;;;5051253;28;20068;-71
2022/01/19 01:54:04;;;;;;;13.27;5.43;;;;;;;;;;5055791;28;20154;-71
2022/01/19 01:56:30;;;;;;;17.17;5.47;;;;;;;;;;5059915;28;20040;-71
2022/01/19 01:59:10;;;;;;;12.88;5.82;;;;;;;;;;5060494;28;20048;-72
2022/01/19 02:01:57;;;;;;;;;;;;;;;;;;5062725;28;20135;-71
2022/01/19 02:04:51;;;;;;;11.63;5.65;;;;;;;;;;5059130;28;19943;-72
2022/01/19 02:07:39;;;;;;;10.90;5.38;;;;;;;;;;5067383;28;20040;-72
2022/01/19 02:10:15;;;;;;;18.70;6.25;;;;;;;;;;5053971;28;20049;-72
2022/01/19 02:16:08;;;;;;;11.73;5.38;;;;;;;;;;5060912;28;20043;-72
2022/01/19 02:24:21;;;;;;;10.80;5.68;;;;;;;;;;5069765;28;20419;-71
2022/01/19 02:28:58;;;;;;;17.10;7.20;;;;;;;;;;5060217;28;20029;-72
2022/01/19 02:40:23;;;;;;;20.88;7.38;;;;;;;;;;5058661;28;20036;-71
2022/01/19 02:50:37;;;;;;;19.27;8.88;;;;;;;;;;5058443;28;20044;-71
2022/01/19 02:53:03;;;;;;;22.13;8.18;;;;;;;;;;5059988;28;20040;-72
2022/01/19 02:55:30;;;;;;;16.52;7.82;;;;;;;;;;5043298;28;20051;-72
2022/01/19 02:57:56;;;;;;;20.48;8.13;;;;;;;;;;5059688;28;20032;-72
2022/01/19 03:08:47;;;;;;;16.02;9.48;;;;;;;;;;5060819;28;20485;-72
2022/01/19 03:11:18;;;;;;;18.23;7.90;;;;;;;;;;5059086;28;20037;-71
2022/01/19 03:13:45;;;;;;;26.98;10.02;;;;;;;;;;5064468;28;20039;-73
2022/01/19 03:16:12;;;;;;;25.23;10.23;;;;;;;;;;5063641;28;20039;-71
2022/01/19 03:18:39;;;;;;;21.92;9.55;;;;;;;;;;5042973;28;20091;-72
2022/01/19 03:21:06;;;;;;;20.48;8.52;;;;;;;;;;5076623;28;20602;-72
2022/01/19 03:23:31;;;;;;;23.02;9.32;;;;;;;;;;5058310;28;20036;-72
2022/01/19 03:25:58;;;;;;;22.95;10.23;;;;;;;;;;5060419;28;20040;-72
2022/01/19 03:28:24;;;;;;;18.35;10.25;;;;;;;;;;5059100;28;20111;-72
2022/01/19 03:30:50;;;;;;;19.08;9.60;;;;;;;;;;5076212;28;20492;-72
2022/01/19 03:33:17;;;;;;;20.73;10.30;;;;;;;;;;5059048;28;20041;-71
2022/01/19 03:35:43;;;;;;;24.10;10.05;;;;;;;;;;5058869;28;20032;-71
2022/01/19 03:38:10;;;;;;;24.55;10.00;;;;;;;;;;5061044;28;20025;-72
2022/01/19 03:40:36;;;;;;;21.88;8.85;;;;;;;;;;5064180;28;20608;-74
2022/01/19 03:43:05;;;;;;;16.45;9.40;;;;;;;;;;5045413;28;20497;-73
2022/01/19 03:45:57;;;;;;;17.70;8.00;;;;;;;;;;5060777;28;20053;-70
2022/01/19 03:50:57;;;;;;;15.25;8.30;;;;;;;;;;5060541;28;20058;-72
2022/01/19 03:53:22;;;;;;;15.23;7.70;;;;;;;;;;5060235;28;20405;-71
2022/01/19 03:55:48;;;;;;;16.27;8.10;;;;;;;;;;5059283;28;20047;-71
2022/01/19 03:58:13;;;;;;;15.85;8.32;;;;;;;;;;5042194;28;20082;-71
2022/01/19 04:00:43;;;;;;;13.40;7.57;;;;;;;;;;5064847;28;20041;-75
2022/01/19 04:03:12;;;;;;;11.25;7.25;;;;;;;;;;5053282;28;20120;-71
2022/01/19 04:05:43;;;;;;;15.80;9.43;;;;;;;;;;5058635;28;20119;-71
2022/01/19 04:08:09;;;;;;;20.85;9.20;;;;;;;;;;5060379;28;20045;-74
2022/01/19 04:10:35;;;;;;;17.23;8.95;;;;;;;;;;5040006;28;20037;-74
2022/01/19 04:13:23;;;;;;;22.20;9.48;;;;;;;;;;5043947;28;20056;-71
2022/01/19 04:15:49;;;;;;;23.75;10.32;;;;;;;;;;5077901;28;20115;-73
2022/01/19 04:18:17;;;;;;;20.08;9.50;;;;;;;;;;5050300;28;20037;-71
2022/01/19 04:20:44;;;;;;;23.80;11.32;;;;;;;;;;5060575;28;20090;-76
2022/01/19 04:23:10;;;;;;;21.98;11.02;;;;;;;;;;5061154;28;20120;-72
2022/01/19 04:25:35;;;;;;;25.35;11.57;;;;;;;;;;5077858;28;20177;-71
2022/01/19 04:28:07;;;;;;;22.52;10.48;;;;;;;;;;5052050;28;20057;-72
2022/01/19 04:30:36;;;;;;;20.70;10.45;;;;;;;;;;5077718;28;20028;-71
2022/01/19 04:33:11;;;;;;;21.38;10.75;;;;;;;;;;5060893;28;20040;-70
2022/01/19 04:36:07;;;;;;;19.52;11.02;;;;;;;;;;5053352;28;20063;-76
2022/01/19 04:44:28;;;;;;;18.23;9.77;;;;;;;;;;5064232;28;20463;-72
2022/01/19 04:47:35;;;;;;;12.13;7.90;;;;;;;;;;5055457;28;20496;-72
2022/01/19 05:06:46;;;;;;;16.80;9.32;;;;;;;;;;5062427;28;20052;-72
2022/01/19 05:09:29;;;;;;;20.77;11.05;;;;;;;;;;5062991;28;20428;-71
2022/01/19 05:14:41;;;;;;;20.75;10.85;;;;;;;;;;5066571;28;20052;-72
2022/01/19 05:17:06;;;;;;;18.05;8.23;;;;;;;;;;5066497;28;20032;-71
2022/01/19 05:19:32;;;;;;;19.15;10.07;;;;;;;;;;5065789;28;20635;-71
2022/01/19 05:21:58;;;;;;;23.05;11.27;;;;;;;;;;5083573;28;20989;-70
2022/01/19 05:24:42;;;;;;;16.38;9.98;;;;;;;;;;5082150;28;20036;-70
2022/01/19 05:27:12;;;;;;;24.55;10.80;;;;;;;;;;5065947;28;20036;-70
2022/01/19 05:29:37;;;;;;;26.90;13.27;;;;;;;;;;5056827;28;20528;-72
2022/01/19 05:32:04;;;;;;;30.23;12.25;;;;;;;;;;5082452;28;20040;-71
2022/01/19 05:34:30;;;;;;;29.05;13.35;;;;;;;;;;5081723;28;20052;-70
2022/01/19 05:37:07;;;;;;;25.20;12.70;;;;;;;;;;5065504;28;20037;-70
2022/01/19 05:39:50;;;;;;;35.53;14.50;;;;;;;;;;5080346;28;20031;-73
2022/01/19 05:42:23;;;;;;;21.83;10.32;;;;;;;;;;5063774;28;20040;-71
2022/01/19 05:44:48;;;;;;;19.48;9.63;;;;;;;;;;5066224;28;20073;-74
2022/01/19 05:47:15;;;;;;;24.80;12.32;;;;;;;;;;5065800;28;20055;-72
2022/01/19 05:49:43;;;;;;;22.48;9.00;;;;;;;;;;5065926;28;20174;-74
2022/01/19 05:52:10;;;;;;;11.07;6.03;;;;;;;;;;5061545;28;20081;-71
2022/01/19 05:54:36;;;;;;;22.70;11.38;;;;;;;;;;5064199;28;20037;-71
2022/01/19 05:57:02;;;;;;;29.55;9.52;;;;;;;;;;5060832;28;21124;-71
2022/01/19 05:59:33;;;;;;;31.43;13.50;;;;;;;;;;5049868;28;20028;-76
2022/01/19 06:02:01;;;;;;;33.90;13.35;;;;;;;;;;5060078;28;20335;-72
2022/01/19 06:04:27;;;;;;;30.45;12.73;;;;;;;;;;5043593;28;20067;-77
2022/01/19 06:07:18;;;;;;;29.60;13.38;;;;;;;;;;5061204;28;20064;-71
2022/01/19 06:10:10;;;;;;;30.77;13.07;;;;;;;;;;5063194;28;20564;-71
2022/01/19 06:12:40;;;;;;;30.83;12.45;;;;;;;;;;5072080;28;20568;-72
2022/01/19 06:15:07;;;;;;;27.85;12.35;;;;;;;;;;5067229;28;20127;-72
2022/01/19 06:17:33;;;;;;;24.38;11.95;;;;;;;;;;5060466;28;20041;-73
2022/01/19 06:20:00;;;;;;;24.65;12.50;;;;;;;;;;5074377;28;20040;-75
2022/01/19 06:22:25;;;;;;;24.80;12.10;;;;;;;;;;5075788;28;20036;-73
2022/01/19 06:24:51;;;;;;;24.80;12.32;;;;;;;;;;5058099;28;20029;-74
2022/01/19 06:27:18;;;;;;;20.38;10.70;;;;;;;;;;5058898;28;20970;-72
2022/01/19 06:29:43;;;;;;;22.48;12.00;;;;;;;;;;5073328;28;20066;-72
2022/01/19 06:32:10;;;;;;;28.42;12.40;;;;;;;;;;5076489;28;20037;-74
2022/01/19 06:34:35;;;;;;;19.70;10.60;;;;;;;;;;5060363;28;20047;-75
2022/01/19 06:37:24;;;;;;;20.25;11.15;;;;;;;;;;5070938;28;20044;-72
2022/01/19 06:40:12;;;;;;;14.82;8.18;;;;;;;;;;5059690;28;20043;-74
2022/01/19 06:42:38;;;;;;;21.13;10.68;;;;;;;;;;5059081;28;20036;-73
2022/01/19 06:45:05;;;;;;;30.05;11.65;;;;;;;;;;5060454;28;20032;-72
2022/01/19 06:47:32;;;;;;;40.30;12.40;;;;;;;;;;5060266;28;20044;-72
2022/01/19 06:49:58;;;;;;;23.77;10.40;;;;;;;;;;5059813;28;20041;-71
2022/01/19 06:52:31;;;;;;;24.63;11.70;;;;;;;;;;5058990;28;21023;-75
2022/01/19 06:54:56;;;;;;;26.13;12.25;;;;;;;;;;5076941;28;20086;-75
2022/01/19 06:57:23;;;;;;;25.20;12.13;;;;;;;;;;5059986;28;20093;-71
2022/01/19 07:00:07;;;;;;;20.63;11.18;;;;;;;;;;5060409;28;20084;-71
2022/01/19 07:02:57;;;;;;;21.42;11.10;;;;;;;;;;5057802;28;20036;-73
2022/01/19 07:05:41;;;;;;;28.08;11.57;;;;;;;;;;5062212;28;20047;-71
2022/01/19 07:08:25;;;;;;;28.88;12.73;;;;;;;;;;5060870;28;20193;-71
2022/01/19 07:10:51;;;;;;;22.30;11.98;;;;;;;;;;5077310;28;20056;-74
2022/01/19 07:13:18;;;;;;;25.35;11.75;;;;;;;;;;5069701;28;20060;-74
2022/01/19 07:15:44;;;;;;;29.73;11.80;;;;;;;;;;5080330;28;20078;-74
2022/01/19 07:18:10;;;;;;;31.83;12.20;;;;;;;;;;5046794;28;20032;-73
2022/01/19 07:20:35;;;;;;;32.45;12.80;;;;;;;;;;5060956;28;20048;-74
2022/01/19 07:23:01;;;;;;;33.38;12.95;;;;;;;;;;5063728;28;20060;-73
2022/01/19 07:25:29;;;;;;;23.80;11.55;;;;;;;;;;5067618;28;20042;-76
2022/01/19 07:27:55;;;;;;;29.05;12.77;;;;;;;;;;5045635;28;22341;-73
2022/01/19 07:30:21;;;;;;;25.30;11.52;;;;;;;;;;5042649;28;20143;-75
2022/01/19 07:32:51;;;;;;;27.05;12.10;;;;;;;;;;5059662;28;20029;-73
2022/01/19 07:35:17;;;;;;;26.10;12.32;;;;;;;;;;5075430;28;20070;-77
2022/01/19 07:37:43;;;;;;;26.58;11.35;;;;;;;;;;5067218;28;20455;-75
2022/01/19 07:40:11;;;;;;;23.00;10.98;;;;;;;;;;5058546;28;20024;-75
2022/01/19 07:42:38;;;;;;;20.75;11.45;;;;;;;;;;5059558;28;20044;-75
2022/01/19 07:45:06;;;;;;;24.80;12.02;;;;;;;;;;5060204;28;20044;-76
2022/01/19 07:47:40;;;;;;;24.65;11.43;;;;;;;;;;5059585;28;20041;-71
2022/01/19 07:50:12;;;;;;;24.85;11.45;;;;;;;;;;5060440;28;20037;-73
2022/01/19 07:52:59;;;;;;;18.77;11.18;;;;;;;;;;5059704;28;20036;-75
2022/01/19 07:55:34;;;;;;;22.98;11.30;;;;;;;;;;5059557;28;20047;-74
2022/01/19 07:58:09;;;;;;;17.58;9.77;;;;;;;;;;5066382;28;20028;-74
2022/01/19 08:01:03;;;;;;;18.85;9.57;;;;;;;;;;5046933;28;20040;-76
2022/01/19 08:03:58;;;;;;;19.20;10.38;;;;;;;;;;5028100;28;20049;-74
2022/01/19 08:06:27;;;;;;;22.27;10.25;;;;;;;;;;5059233;28;20123;-73
2022/01/19 08:08:54;;;;;;;16.80;9.45;;;;;;;;;;5057087;28;20446;-73
2022/01/19 08:11:20;;;;;;;23.55;10.13;;;;;;;;;;5058826;28;20122;-74
2022/01/19 08:13:49;;;;;;;24.88;11.15;;;;;;;;;;5046325;28;20105;-75
2022/01/19 08:16:15;;;;;;;22.20;11.15;;;;;;;;;;5062294;28;20094;-74
2022/01/19 08:18:41;;;;;;;18.15;10.75;;;;;;;;;;5063000;28;20025;-74
2022/01/19 08:21:07;;;;;;;24.05;11.25;;;;;;;;;;5045182;28;20052;-74
2022/01/19 08:23:44;;;;;;;19.45;10.38;;;;;;;;;;5079313;28;20036;-75
2022/01/19 08:26:15;;;;;;;25.55;11.93;;;;;;;;;;5063055;28;20032;-73
2022/01/19 08:28:42;;;;;;;24.58;11.07;;;;;;;;;;5062723;28;21238;-74
2022/01/19 08:31:08;;;;;;;19.63;11.30;;;;;;;;;;5061709;28;20040;-73
2022/01/19 08:33:51;;;;;;;24.58;10.98;;;;;;;;;;5062605;28;20098;-74
2022/01/19 08:36:23;;;;;;;25.83;13.13;;;;;;;;;;5062969;28;20126;-73
2022/01/19 08:39:04;;;;;;;28.45;11.38;;;;;;;;;;5062933;28;20032;-74
2022/01/19 08:41:32;;;;;;;19.33;10.80;;;;;;;;;;5061463;28;20032;-76
2022/01/19 08:44:00;;;;;;;20.77;11.93;;;;;;;;;;5064055;28;20037;-75
2022/01/19 08:46:25;;;;;;;20.60;11.18;;;;;;;;;;5047522;28;20194;-76
2022/01/19 08:49:29;;;;;;;23.02;11.90;;;;;;;;;;5063338;28;20098;-75
2022/01/19 08:52:15;;;;;;;17.77;10.10;;;;;;;;;;5063089;28;20044;-74
2022/01/19 08:54:45;;;;;;;23.90;11.13;;;;;;;;;;5071819;28;20040;-71
2022/01/19 08:57:11;;;;;;;18.98;10.77;;;;;;;;;;5062608;28;20047;-72
2022/01/19 08:59:36;;;;;;;24.08;11.60;;;;;;;;;;5066356;28;20037;-76
2022/01/19 09:02:03;;;;;;;22.48;10.85;;;;;;;;;;5063724;28;20037;-74
2022/01/19 09:04:28;;;;;;;21.70;11.73;;;;;;;;;;5062990;28;20054;-73
2022/01/19 09:06:53;;;;;;;21.85;10.00;;;;;;;;;;5063737;28;20401;-75
2022/01/19 09:09:19;;;;;;;16.90;10.88;;;;;;;;;;5063386;28;20043;-73
2022/01/19 09:11:45;;;;;;;23.83;13.25;;;;;;;;;;5063964;28;20039;-75
2022/01/19 09:14:11;;;;;;;21.63;11.80;;;;;;;;;;5062037;28;20895;-76
2022/01/19 09:16:37;;;;;;;20.35;10.35;;;;;;;;;;5063359;28;20100;-74
2022/01/19 09:19:06;;;;;;;23.08;12.18;;;;;;;;;;5066344;28;20040;-72
2022/01/19 09:21:32;;;;;;;20.95;11.75;;;;;;;;;;5063828;28;20052;-74
2022/01/19 09:23:58;;;;;;;18.40;11.07;;;;;;;;;;5063009;28;20036;-70
2022/01/19 09:26:23;;;;;;;18.67;11.15;;;;;;;;;;5061093;28;20817;-72
2022/01/19 09:28:48;;;;;;;21.00;10.65;;;;;;;;;;5062833;28;20040;-70
2022/01/19 09:31:17;;;;;;;24.20;11.05;;;;;;;;;;5061530;28;20048;-69
2022/01/19 09:33:44;;;;;;;26.90;12.07;;;;;;;;;;5062871;28;20150;-69
2022/01/19 09:39:05;;;;;;;18.20;11.02;;;;;;;;;;5038328;28;20131;-69
2022/01/19 09:41:31;;;;;;;14.23;8.80;;;;;;;;;;5062937;28;20123;-74
2022/01/19 09:43:57;;;;;;;18.48;9.40;;;;;;;;;;5062627;28;20051;-71
2022/01/19 09:46:23;;;;;;;15.98;9.32;;;;;;;;;;5062515;28;20036;-73
2022/01/19 09:48:49;;;;;;;19.52;10.82;;;;;;;;;;5059984;28;20028;-73
2022/01/19 09:51:15;;;;;;;15.10;9.52;;;;;;;;;;5061299;28;20451;-73
2022/01/19 09:53:42;;;;;;;13.60;9.20;;;;;;;;;;5063014;28;20036;-72
2022/01/19 09:56:08;;;;;;;14.88;8.73;;;;;;;;;;5062613;28;20047;-75
2022/01/19 09:58:34;;;;;;;10.25;7.18;;;;;;;;;;5060637;28;20661;-73
2022/01/19 10:01:00;;;;;;;14.23;9.00;;;;;;;;;;5062435;28;20036;-73
2022/01/19 10:03:30;;;;;;;14.38;9.40;;;;;;;;;;5062687;28;20036;-70
2022/01/19 10:05:59;;;;;;;16.42;9.48;;;;;;;;;;5062524;28;20032;-70
2022/01/19 10:08:30;;;;;;;14.23;8.73;;;;;;;;;;5062089;28;20408;-72
2022/01/19 10:16:59;;;;;;;16.80;8.57;;;;;;;;;;5061913;28;20055;-70
2022/01/19 10:19:27;;;;;;;11.60;8.70;;;;;;;;;;5057072;28;20147;-72
2022/01/19 10:22:06;;;;;;;17.00;9.02;;;;;;;;;;5060641;28;20032;-71
2022/01/19 10:24:46;;;;;;;14.68;8.68;;;;;;;;;;5060272;28;20484;-71
2022/01/19 10:27:30;;;;;;;13.88;9.63;;;;;;;;;;5061858;28;20039;-71
2022/01/19 10:30:03;;;;;;;14.65;9.23;;;;;;;;;;5061118;28;20062;-72
2022/01/19 10:32:36;;;;;;;11.13;8.20;;;;;;;;;;5060722;28;20500;-72
2022/01/19 10:35:18;;;;;;;11.25;7.60;;;;;;;;;;5060860;28;20485;-72
2022/01/19 10:37:46;;;;;;;10.93;7.50;;;;;;;;;;5061319;28;20024;-72
2022/01/19 10:40:19;;;;;;;11.65;7.75;;;;;;;;;;5061726;28;20055;-71
2022/01/19 10:42:47;;;;;;;10.05;7.50;;;;;;;;;;5060361;28;20032;-72
2022/01/19 10:45:14;;;;;;;12.02;8.55;;;;;;;;;;5061641;28;20405;-72
2022/01/19 10:47:39;;;;;;;13.93;7.57;;;;;;;;;;5061303;28;20040;-72
2022/01/19 10:50:05;;;;;;;11.77;7.78;;;;;;;;;;5059815;28;20075;-72
2022/01/19 10:52:32;;;;;;;10.05;7.65;;;;;;;;;;5076586;28;20025;-71
2022/01/19 10:55:00;;;;;;;11.73;7.60;;;;;;;;;;5060684;28;20075;-72
2022/01/19 10:57:28;;;;;;;16.23;9.00;;;;;;;;;;5059032;28;20374;-72
2022/01/19 11:00:12;;;;;;;12.18;8.20;;;;;;;;;;5059509;28;20047;-72
2022/01/19 11:02:38;;;;;;;12.93;8.57;;;;;;;;;;5059447;28;20481;-73
2022/01/19 11:05:04;;;;;;;10.77;7.53;;;;;;;;;;5061367;28;20042;-73
2022/01/19 11:07:30;;;;;;;10.30;7.22;;;;;;;;;;5058623;28;20417;-71
2022/01/19 11:10:07;;;;;;;11.15;7.70;;;;;;;;;;5060106;28;20028;-73
2022/01/19 11:12:39;;;;;;;13.40;8.35;;;;;;;;;;5061411;28;20036;-74
2022/01/19 11:15:07;;;;;;;10.05;7.13;;;;;;;;;;5061135;28;20089;-73
2022/01/19 11:17:33;;;;;;;10.82;7.85;;;;;;;;;;5061136;28;20159;-73
2022/01/19 11:20:07;;;;;;;11.95;7.90;;;;;;;;;;5059672;28;20107;-70
2022/01/19 11:22:35;;;;;;;12.38;8.02;;;;;;;;;;5060828;28;20150;-72
2022/01/19 11:25:00;;;;;;;14.10;7.05;;;;;;;;;;5060474;28;20111;-74
2022/01/19 11:27:29;;;;;;;15.45;7.40;;;;;;;;;;5061113;28;20041;-73
2022/01/19 11:30:31;;;;;;;12.98;7.30;;;;;;;;;;5059906;28;20086;-72
2022/01/19 11:33:15;;;;;;;12.98;7.97;;;;;;;;;;5058710;28;20083;-73
2022/01/19 11:35:46;;;;;;;11.07;7.53;;;;;;;;;;5059182;28;20147;-70
2022/01/19 11:38:31;;;;;;;9.18;7.28;;;;;;;;;;5060307;28;20036;-71
2022/01/19 11:41:02;;;;;;;11.18;7.00;;;;;;;;;;5058109;28;20551;-71
2022/01/19 11:43:30;;;;;;;9.07;7.07;;;;;;;;;;5060136;28;20051;-74
2022/01/19 11:45:58;;;;;;;9.55;7.25;;;;;;;;;;5060575;28;20051;-73
2022/01/19 11:48:26;;;;;;;11.77;6.88;;;;;;;;;;5065020;28;21049;-73
2022/01/19 11:50:54;;;;;;;9.85;6.93;;;;;;;;;;5064151;28;20089;-73
2022/01/19 11:53:20;;;;;;;9.75;6.90;;;;;;;;;;5062513;28;20032;-75
2022/01/19 11:56:08;;;;;;;13.93;7.57;;;;;;;;;;5063503;28;20401;-72
2022/01/19 11:58:35;;;;;;;8.70;6.30;;;;;;;;;;5064759;28;20060;-76
2022/01/19 12:01:01;;;;;;;9.98;6.78;;;;;;;;;;5064333;28;20049;-74
2022/01/19 12:03:30;;;;;;;10.00;7.25;;;;;;;;;;5062565;28;20382;-74
2022/01/19 12:05:56;;;;;;;9.18;6.75;;;;;;;;;;5062278;28;20043;-73
2022/01/19 12:08:34;;;;;;;7.95;6.47;;;;;;;;;;5062726;28;20036;-72
2022/01/19 12:11:22;;;;;;;10.20;6.72;;;;;;;;;;5064285;28;20452;-70
2022/01/19 12:17:07;;;;;;;9.93;6.82;;;;;;;;;;5063567;28;20040;-71
2022/01/19 12:19:41;;;;;;;12.68;7.20;;;;;;;;;;5064103;28;20396;-72
2022/01/19 12:22:28;;;;;;;9.45;6.63;;;;;;;;;;5068499;28;20071;-70
2022/01/19 12:24:56;;;;;;;10.35;7.43;;;;;;;;;;5059317;28;20047;-70
2022/01/19 12:27:36;;;;;;;11.63;7.28;;;;;;;;;;5067146;28;20041;-70
2022/01/19 12:30:07;;;;;;;11.68;8.38;;;;;;;;;;5066472;28;20826;-71
2022/01/19 12:33:03;;;;;;;11.90;8.15;;;;;;;;;;5064361;28;20047;-71
2022/01/19 12:35:35;;;;;;;11.57;7.80;;;;;;;;;;5063456;28;20070;-74
2022/01/19 12:38:04;;;;;;;9.75;7.25;;;;;;;;;;5065827;28;20051;-70
2022/01/19 12:40:36;;;;;;;12.27;8.32;;;;;;;;;;5063377;28;20074;-72
2022/01/19 12:43:06;;;;;;;17.23;7.15;;;;;;;;;;5064080;28;20031;-71
2022/01/19 12:45:48;;;;;;;10.90;7.05;;;;;;;;;;5063401;28;20036;-70
2022/01/19 12:48:14;;;;;;;11.70;7.25;;;;;;;;;;5061966;28;20060;-70
2022/01/19 12:50:46;;;;;;;9.00;6.68;;;;;;;;;;5064317;28;20466;-70
2022/01/19 12:53:20;;;;;;;12.55;8.02;;;;;;;;;;5059917;28;20102;-70
2022/01/19 12:55:49;;;;;;;13.20;6.72;;;;;;;;;;5063275;28;20115;-71
2022/01/19 12:58:24;;;;;;;13.63;6.97;;;;;;;;;;5065699;28;20032;-70
2022/01/19 13:00:53;;;;;;;11.52;6.90;;;;;;;;;;5062890;28;20428;-71
2022/01/19 13:03:26;;;;;;;9.57;6.68;;;;;;;;;;5064099;28;20040;-71
2022/01/19 13:05:54;;;;;;;10.05;6.82;;;;;;;;;;5067102;28;20480;-71
2022/01/19 13:08:29;;;;;;;10.88;7.15;;;;;;;;;;5063230;28;20081;-70
2022/01/19 13:11:04;;;;;;;9.70;6.35;;;;;;;;;;5062772;28;20044;-71
2022/01/19 13:13:29;;;;;;;11.85;5.72;;;;;;;;;;5064565;28;20536;-71
2022/01/19 13:15:58;;;;;;;7.07;4.22;;;;;;;;;;5065113;28;20050;-70
2022/01/19 13:18:29;;;;;;;6.85;4.65;;;;;;;;;;5063727;28;20136;-70
2022/01/19 13:20:58;;;;;;;6.43;3.55;;;;;;;;;;5062648;28;20117;-70
2022/01/19 13:23:24;;;;;;;6.97;4.57;;;;;;;;;;5064496;28;20439;-71
2022/01/19 13:26:19;;;;;;;19.40;5.88;;;;;;;;;;5062882;28;20089;-70
2022/01/19 13:28:45;;;;;;;6.55;4.32;;;;;;;;;;5059833;28;20078;-70
2022/01/19 13:31:23;;;;;;;7.03;4.10;;;;;;;;;;5061223;28;20118;-70
2022/01/19 13:34:07;;;;;;;6.90;5.15;;;;;;;;;;5061941;28;20109;-71
2022/01/19 13:36:35;;;;;;;7.35;4.63;;;;;;;;;;5066552;28;20078;-71
2022/01/19 13:39:03;;;;;;;11.00;4.20;;;;;;;;;;5066471;28;20480;-71
2022/01/19 13:41:29;;;;;;;4.38;3.33;;;;;;;;;;5067829;28;20040;-71
2022/01/19 13:44:04;;;;;;;7.57;4.13;;;;;;;;;;5062419;28;20044;-71
2022/01/19 13:46:32;;;;;;;8.98;5.57;;;;;;;;;;5067890;28;20706;-71
2022/01/19 13:49:00;;;;;;;8.82;5.43;;;;;;;;;;5044122;28;20108;-71
2022/01/19 13:51:27;;;;;;;8.48;4.32;;;;;;;;;;5060641;28;20044;-71
2022/01/19 13:53:54;;;;;;;12.30;5.80;;;;;;;;;;5059838;28;20119;-71
2022/01/19 13:56:37;;;;;;;9.00;5.43;;;;;;;;;;5062380;28;20041;-70
2022/01/19 13:59:12;;;;;;;11.73;5.10;;;;;;;;;;5062095;28;20402;-71
2022/01/19 14:04:22;;;;;;;7.60;4.60;;;;;;;;;;5060239;28;20048;-72
2022/01/19 14:06:49;;;;;;;8.05;5.57;;;;;;;;;;5078816;28;20088;-72
2022/01/19 14:09:17;;;;;;;8.80;5.43;;;;;;;;;;5061929;28;20128;-71
2022/01/19 14:11:45;;;;;;;8.48;5.50;;;;;;;;;;5061283;28;20036;-71
2022/01/19 14:14:21;;;;;;;13.05;4.70;;;;;;;;;;5044200;28;20040;-71
2022/01/19 14:16:49;;;;;;;7.82;4.88;;;;;;;;;;5061170;28;20693;-71
2022/01/19 14:19:24;;;;;;;6.60;4.80;;;;;;;;;;5061022;28;20052;-71
2022/01/19 14:22:13;;;;;;;9.80;4.95;;;;;;;;;;5060825;28;20113;-71
2022/01/19 14:24:45;;;;;;;6.70;4.97;;;;;;;;;;5060445;28;20028;-72
2022/01/19 14:27:31;;;;;;;9.00;5.28;;;;;;;;;;5060478;28;20036;-72
2022/01/19 14:30:06;;;;;;;12.13;4.82;;;;;;;;;;5050987;28;20037;-72
2022/01/19 14:32:32;;;;;;;6.07;4.18;;;;;;;;;;5062531;28;20117;-72
2022/01/19 14:34:58;;;;;;;10.70;4.75;;;;;;;;;;5063602;28;20591;-72
2022/01/19 14:37:24;;;;;;;7.55;5.70;;;;;;;;;;5060697;28;20050;-73
2022/01/19 14:39:55;;;;;;;10.18;4.78;;;;;;;;;;5064013;28;20544;-73
2022/01/19 14:42:29;;;;;;;14.20;5.07;;;;;;;;;;5079983;28;20040;-73
2022/01/19 14:45:18;;;;;;;7.70;4.65;;;;;;;;;;5076175;28;20083;-73
2022/01/19 14:47:43;;;;;;;10.05;4.63;;;;;;;;;;5055460;28;20036;-72
2022/01/19 14:50:24;;;;;;;8.07;4.68;;;;;;;;;;5061066;28;20112;-72
2022/01/19 14:52:52;;;;;;;8.73;4.90;;;;;;;;;;5061207;28;20036;-73
2022/01/19 14:55:29;;;;;;;13.82;5.13;;;;;;;;;;5052530;28;20036;-72
2022/01/19 14:57:57;;;;;;;7.95;5.10;;;;;;;;;;5060601;28;20090;-72
2022/01/19 15:00:24;;;;;;;6.65;4.55;;;;;;;;;;5059677;28;20036;-71
2022/01/19 15:02:57;;;;;;;7.53;4.82;;;;;;;;;;5060970;28;20025;-73
2022/01/19 15:05:24;;;;;;;7.10;3.95;;;;;;;;;;5055990;28;20183;-72
2022/01/19 15:07:52;;;;;;;7.57;4.80;;;;;;;;;;5053676;28;20125;-72
2022/01/19 15:10:18;;;;;;;9.52;5.65;;;;;;;;;;5058494;28;20478;-73
2022/01/19 15:12:45;;;;;;;10.13;6.03;;;;;;;;;;5060480;28;20170;-72
2022/01/19 15:15:10;;;;;;;16.33;6.20;;;;;;;;;;5059499;28;20115;-72
2022/01/19 15:17:38;;;;;;;12.20;6.47;;;;;;;;;;5060326;28;20054;-72
2022/01/19 15:20:07;;;;;;;13.70;9.18;;;;;;;;;;5058597;28;20742;-72
2022/01/19 15:22:33;;;;;;;15.38;8.60;;;;;;;;;;5057764;28;20043;-71
2022/01/19 15:24:59;;;;;;;11.50;7.05;;;;;;;;;;5060229;28;20036;-71
2022/01/19 15:27:24;;;;;;;14.25;7.38;;;;;;;;;;5059384;28;20040;-71
2022/01/19 15:29:50;;;;;;;13.65;7.40;;;;;;;;;;5059486;28;20043;-72
2022/01/19 15:32:17;;;;;;;14.98;6.68;;;;;;;;;;5058874;28;20036;-71
2022/01/19 15:34:43;;;;;;;10.95;6.40;;;;;;;;;;5059157;28;20029;-73
2022/01/19 15:37:08;;;;;;;19.98;8.25;;;;;;;;;;5058407;28;20041;-71
2022/01/19 15:39:34;;;;;;;13.30;6.78;;;;;;;;;;5059487;28;20024;-71
2022/01/19 15:42:01;;;;;;;13.25;7.03;;;;;;;;;;5058386;28;20040;-72
2022/01/19 15:44:27;;;;;;;15.95;8.13;;;;;;;;;;5064449;28;20085;-72
2022/01/19 15:46:53;;;;;;;16.13;6.97;;;;;;;;;;5059163;28;20032;-72
2022/01/19 15:49:18;;;;;;;15.48;8.23;;;;;;;;;;5060479;28;20048;-72
2022/01/19 15:51:44;;;;;;;12.45;7.20;;;;;;;;;;5059594;28;20075;-72
2022/01/19 15:54:11;;;;;;;14.00;9.77;;;;;;;;;;5058546;28;20052;-71
2022/01/19 15:56:38;;;;;;;16.15;8.98;;;;;;;;;;5057866;28;20063;-73
2022/01/19 15:59:04;;;;;;;24.35;9.85;;;;;;;;;;5060183;28;20033;-73
2022/01/19 16:01:29;;;;;;;15.65;7.80;;;;;;;;;;5043066;28;20059;-71
2022/01/19 16:03:55;;;;;;;16.02;9.52;;;;;;;;;;5062268;28;20033;-71
2022/01/19 16:06:20;;;;;;;14.68;8.75;;;;;;;;;;5060455;28;20839;-71
2022/01/19 16:08:46;;;;;;;22.10;10.45;;;;;;;;;;5059178;28;20075;-71
2022/01/19 16:11:11;;;;;;;17.35;10.80;;;;;;;;;;5059940;28;20809;-71
2022/01/19 16:13:36;;;;;;;19.15;11.45;;;;;;;;;;5060430;28;20032;-71
2022/01/19 16:16:02;;;;;;;21.40;11.60;;;;;;;;;;5060865;28;20950;-73